sensor_id;sensor_type;location;lat;lon;timestamp;P1;durP1;ratioP1;P2;durP2;ratioP2
19905;SDS011;10115;50.906;4.438;2023-05-23T00:00:57;40.70;;;16.43;;
19905;SDS011;10115;50.906;4.438;2023-05-23T00:03:24;23.63;;;14.73;;
19905;SDS011;10115;50.906;4.438;2023-05-23T00:05:50;31.90;;;14.17;;
19905;SDS011;10115;50.906;4.438;2023-05-23T00:08:16;29.63;;;15.77;;
19905;SDS011;10115;50.906;4.438;2023-05-23T00:10:43;31.87;;;16.63;;
19905;SDS011;10115;50.906;4.438;2023-05-23T00:13:09;29.37;;;15.00;;
19905;SDS011;10115;50.906;4.438;2023-05-23T00:15:36;29.80;;;15.37;;
19905;SDS011;10115;50.906;4.438;2023-05-23T00:18:12;32.40;;;15.50;;
19905;SDS011;10115;50.906;4.438;2023-05-23T00:20:39;33.50;;;17.03;;
19905;SDS011;10115;50.906;4.438;2023-05-23T00:23:06;30.90;;;14.17;;
19905;SDS011;10115;50.906;4.438;2023-05-23T00:25:34;35.77;;;14.20;;
19905;SDS011;10115;50.906;4.438;2023-05-23T00:28:00;30.13;;;15.67;;
19905;SDS011;10115;50.906;4.438;2023-05-23T00:30:28;24.80;;;14.17;;
19905;SDS011;10115;50.906;4.438;2023-05-23T00:32:55;29.87;;;14.67;;
19905;SDS011;10115;50.906;4.438;2023-05-23T00:35:20;27.50;;;13.90;;
19905;SDS011;10115;50.906;4.438;2023-05-23T00:37:47;27.10;;;15.13;;
19905;SDS011;10115;50.906;4.438;2023-05-23T00:40:15;33.03;;;13.10;;
19905;SDS011;10115;50.906;4.438;2023-05-23T00:42:46;33.40;;;13.47;;
19905;SDS011;10115;50.906;4.438;2023-05-23T00:45:18;25.73;;;12.63;;
19905;SDS011;10115;50.906;4.438;2023-05-23T00:47:44;32.93;;;14.67;;
19905;SDS011;10115;50.906;4.438;2023-05-23T00:50:12;28.50;;;14.67;;
19905;SDS011;10115;50.906;4.438;2023-05-23T00:52:39;29.07;;;14.70;;
19905;SDS011;10115;50.906;4.438;2023-05-23T00:55:07;29.57;;;14.13;;
19905;SDS011;10115;50.906;4.438;2023-05-23T00:57:33;27.97;;;14.00;;
19905;SDS011;10115;50.906;4.438;2023-05-23T00:59:59;35.03;;;13.53;;
19905;SDS011;10115;50.906;4.438;2023-05-23T01:02:26;18.87;;;13.13;;
19905;SDS011;10115;50.906;4.438;2023-05-23T01:04:52;29.47;;;13.87;;
19905;SDS011;10115;50.906;4.438;2023-05-23T01:07:20;30.23;;;13.90;;
19905;SDS011;10115;50.906;4.438;2023-05-23T01:09:45;22.63;;;13.37;;
19905;SDS011;10115;50.906;4.438;2023-05-23T01:12:19;19.90;;;12.37;;
19905;SDS011;10115;50.906;4.438;2023-05-23T01:15:04;28.63;;;15.43;;
19905;SDS011;10115;50.906;4.438;2023-05-23T01:20:06;23.00;;;13.07;;
19905;SDS011;10115;50.906;4.438;2023-05-23T01:26:12;26.47;;;14.40;;
19905;SDS011;10115;50.906;4.438;2023-05-23T01:28:28;22.00;;;11.93;;
19905;SDS011;10115;50.906;4.438;2023-05-23T01:30:57;25.20;;;12.97;;
19905;SDS011;10115;50.906;4.438;2023-05-23T01:33:26;24.70;;;13.40;;
19905;SDS011;10115;50.906;4.438;2023-05-23T01:35:54;25.93;;;12.57;;
19905;SDS011;10115;50.906;4.438;2023-05-23T01:38:21;28.63;;;12.97;;
19905;SDS011;10115;50.906;4.438;2023-05-23T01:40:47;19.07;;;11.63;;
19905;SDS011;10115;50.906;4.438;2023-05-23T01:43:13;18.63;;;11.97;;
19905;SDS011;10115;50.906;4.438;2023-05-23T01:45:39;20.67;;;12.60;;
19905;SDS011;10115;50.906;4.438;2023-05-23T01:48:06;19.67;;;12.27;;
19905;SDS011;10115;50.906;4.438;2023-05-23T01:50:33;24.90;;;12.67;;
19905;SDS011;10115;50.906;4.438;2023-05-23T01:52:59;17.80;;;12.23;;
19905;SDS011;10115;50.906;4.438;2023-05-23T01:55:25;16.67;;;11.43;;
19905;SDS011;10115;50.906;4.438;2023-05-23T01:57:55;12.77;;;10.13;;
19905;SDS011;10115;50.906;4.438;2023-05-23T02:00:21;20.80;;;12.07;;
19905;SDS011;10115;50.906;4.438;2023-05-23T02:02:48;14.70;;;10.90;;
19905;SDS011;10115;50.906;4.438;2023-05-23T02:05:13;18.10;;;11.93;;
19905;SDS011;10115;50.906;4.438;2023-05-23T02:07:39;13.33;;;10.60;;
19905;SDS011;10115;50.906;4.438;2023-05-23T02:10:06;18.77;;;12.63;;
19905;SDS011;10115;50.906;4.438;2023-05-23T02:12:33;16.83;;;10.90;;
19905;SDS011;10115;50.906;4.438;2023-05-23T02:14:58;15.80;;;10.67;;
19905;SDS011;10115;50.906;4.438;2023-05-23T02:17:24;17.80;;;12.20;;
19905;SDS011;10115;50.906;4.438;2023-05-23T02:19:50;13.87;;;10.70;;
19905;SDS011;10115;50.906;4.438;2023-05-23T02:22:16;21.80;;;11.77;;
19905;SDS011;10115;50.906;4.438;2023-05-23T02:24:42;16.87;;;9.83;;
19905;SDS011;10115;50.906;4.438;2023-05-23T02:27:07;16.40;;;11.43;;
19905;SDS011;10115;50.906;4.438;2023-05-23T02:29:33;20.37;;;11.23;;
19905;SDS011;10115;50.906;4.438;2023-05-23T02:31:58;13.53;;;11.43;;
19905;SDS011;10115;50.906;4.438;2023-05-23T02:34:24;14.63;;;10.33;;
19905;SDS011;10115;50.906;4.438;2023-05-23T02:36:50;12.73;;;9.70;;
19905;SDS011;10115;50.906;4.438;2023-05-23T02:39:16;17.50;;;10.73;;
19905;SDS011;10115;50.906;4.438;2023-05-23T02:41:42;11.60;;;8.93;;
19905;SDS011;10115;50.906;4.438;2023-05-23T02:44:07;13.27;;;10.50;;
19905;SDS011;10115;50.906;4.438;2023-05-23T02:46:33;15.80;;;10.60;;
19905;SDS011;10115;50.906;4.438;2023-05-23T02:48:59;13.57;;;8.50;;
19905;SDS011;10115;50.906;4.438;2023-05-23T02:51:25;15.50;;;9.33;;
19905;SDS011;10115;50.906;4.438;2023-05-23T02:53:50;15.03;;;9.20;;
19905;SDS011;10115;50.906;4.438;2023-05-23T02:56:16;14.50;;;10.00;;
19905;SDS011;10115;50.906;4.438;2023-05-23T02:58:43;22.97;;;9.37;;
19905;SDS011;10115;50.906;4.438;2023-05-23T03:01:08;17.53;;;9.40;;
19905;SDS011;10115;50.906;4.438;2023-05-23T03:03:34;12.93;;;10.27;;
19905;SDS011;10115;50.906;4.438;2023-05-23T03:06:01;16.60;;;10.27;;
19905;SDS011;10115;50.906;4.438;2023-05-23T03:08:27;18.87;;;11.63;;
19905;SDS011;10115;50.906;4.438;2023-05-23T03:10:53;16.37;;;10.10;;
19905;SDS011;10115;50.906;4.438;2023-05-23T03:13:18;24.13;;;9.97;;
19905;SDS011;10115;50.906;4.438;2023-05-23T03:15:44;18.40;;;11.33;;
19905;SDS011;10115;50.906;4.438;2023-05-23T03:18:10;28.03;;;12.33;;
19905;SDS011;10115;50.906;4.438;2023-05-23T03:20:36;25.30;;;12.90;;
19905;SDS011;10115;50.906;4.438;2023-05-23T03:23:02;20.60;;;13.03;;
19905;SDS011;10115;50.906;4.438;2023-05-23T03:25:28;18.03;;;11.00;;
19905;SDS011;10115;50.906;4.438;2023-05-23T03:27:53;20.10;;;11.43;;
19905;SDS011;10115;50.906;4.438;2023-05-23T03:30:20;14.90;;;11.20;;
19905;SDS011;10115;50.906;4.438;2023-05-23T03:32:45;24.17;;;12.93;;
19905;SDS011;10115;50.906;4.438;2023-05-23T03:35:12;28.30;;;12.67;;
19905;SDS011;10115;50.906;4.438;2023-05-23T03:37:37;24.30;;;15.20;;
19905;SDS011;10115;50.906;4.438;2023-05-23T03:40:03;28.77;;;13.93;;
19905;SDS011;10115;50.906;4.438;2023-05-23T03:42:31;21.27;;;12.77;;
19905;SDS011;10115;50.906;4.438;2023-05-23T03:44:57;26.33;;;15.00;;
19905;SDS011;10115;50.906;4.438;2023-05-23T03:47:22;23.17;;;13.00;;
19905;SDS011;10115;50.906;4.438;2023-05-23T03:49:48;20.10;;;12.43;;
19905;SDS011;10115;50.906;4.438;2023-05-23T03:52:14;24.70;;;12.83;;
19905;SDS011;10115;50.906;4.438;2023-05-23T03:54:40;12.53;;;10.43;;
19905;SDS011;10115;50.906;4.438;2023-05-23T03:57:06;17.00;;;11.37;;
19905;SDS011;10115;50.906;4.438;2023-05-23T03:59:32;18.20;;;10.27;;
19905;SDS011;10115;50.906;4.438;2023-05-23T04:01:58;12.70;;;8.43;;
19905;SDS011;10115;50.906;4.438;2023-05-23T04:04:25;15.37;;;11.43;;
19905;SDS011;10115;50.906;4.438;2023-05-23T04:06:51;13.90;;;9.17;;
19905;SDS011;10115;50.906;4.438;2023-05-23T04:09:17;15.20;;;10.57;;
19905;SDS011;10115;50.906;4.438;2023-05-23T04:11:43;12.57;;;9.73;;
19905;SDS011;10115;50.906;4.438;2023-05-23T04:14:08;12.97;;;9.93;;
19905;SDS011;10115;50.906;4.438;2023-05-23T04:16:35;11.60;;;8.30;;
19905;SDS011;10115;50.906;4.438;2023-05-23T04:19:02;11.10;;;7.93;;
19905;SDS011;10115;50.906;4.438;2023-05-23T04:21:31;13.77;;;8.70;;
19905;SDS011;10115;50.906;4.438;2023-05-23T04:23:57;16.03;;;8.40;;
19905;SDS011;10115;50.906;4.438;2023-05-23T04:26:22;10.70;;;7.77;;
19905;SDS011;10115;50.906;4.438;2023-05-23T04:28:48;8.43;;;7.40;;
19905;SDS011;10115;50.906;4.438;2023-05-23T04:31:14;11.87;;;7.00;;
19905;SDS011;10115;50.906;4.438;2023-05-23T04:33:40;7.60;;;6.87;;
19905;SDS011;10115;50.906;4.438;2023-05-23T04:36:05;12.43;;;7.60;;
19905;SDS011;10115;50.906;4.438;2023-05-23T04:38:34;9.93;;;7.73;;
19905;SDS011;10115;50.906;4.438;2023-05-23T04:41:02;9.27;;;7.47;;
19905;SDS011;10115;50.906;4.438;2023-05-23T04:43:31;13.57;;;7.27;;
19905;SDS011;10115;50.906;4.438;2023-05-23T04:46:01;11.27;;;6.97;;
19905;SDS011;10115;50.906;4.438;2023-05-23T04:48:28;13.93;;;6.70;;
19905;SDS011;10115;50.906;4.438;2023-05-23T04:50:55;11.20;;;8.00;;
19905;SDS011;10115;50.906;4.438;2023-05-23T04:53:21;8.90;;;8.00;;
19905;SDS011;10115;50.906;4.438;2023-05-23T04:55:47;13.13;;;8.80;;
19905;SDS011;10115;50.906;4.438;2023-05-23T04:58:13;10.07;;;7.37;;
19905;SDS011;10115;50.906;4.438;2023-05-23T05:00:38;8.83;;;7.33;;
19905;SDS011;10115;50.906;4.438;2023-05-23T05:03:04;9.23;;;7.47;;
19905;SDS011;10115;50.906;4.438;2023-05-23T05:05:30;12.90;;;8.93;;
19905;SDS011;10115;50.906;4.438;2023-05-23T05:07:56;10.90;;;9.33;;
19905;SDS011;10115;50.906;4.438;2023-05-23T05:10:21;14.70;;;10.20;;
19905;SDS011;10115;50.906;4.438;2023-05-23T05:12:47;13.43;;;9.60;;
19905;SDS011;10115;50.906;4.438;2023-05-23T05:15:16;16.13;;;9.73;;
19905;SDS011;10115;50.906;4.438;2023-05-23T05:17:42;12.43;;;10.17;;
19905;SDS011;10115;50.906;4.438;2023-05-23T05:20:08;13.10;;;10.37;;
19905;SDS011;10115;50.906;4.438;2023-05-23T05:22:38;10.60;;;9.10;;
19905;SDS011;10115;50.906;4.438;2023-05-23T05:25:07;24.77;;;7.27;;
19905;SDS011;10115;50.906;4.438;2023-05-23T05:27:34;13.60;;;8.60;;
19905;SDS011;10115;50.906;4.438;2023-05-23T05:30:02;15.70;;;10.77;;
19905;SDS011;10115;50.906;4.438;2023-05-23T05:32:30;20.37;;;8.83;;
19905;SDS011;10115;50.906;4.438;2023-05-23T05:34:57;17.73;;;10.07;;
19905;SDS011;10115;50.906;4.438;2023-05-23T05:37:23;19.40;;;10.20;;
19905;SDS011;10115;50.906;4.438;2023-05-23T05:39:49;12.97;;;8.60;;
19905;SDS011;10115;50.906;4.438;2023-05-23T05:42:15;11.30;;;8.23;;
19905;SDS011;10115;50.906;4.438;2023-05-23T05:44:40;13.27;;;8.93;;
19905;SDS011;10115;50.906;4.438;2023-05-23T05:47:06;14.40;;;8.70;;
19905;SDS011;10115;50.906;4.438;2023-05-23T05:49:32;11.40;;;7.83;;
19905;SDS011;10115;50.906;4.438;2023-05-23T05:51:57;19.30;;;10.20;;
19905;SDS011;10115;50.906;4.438;2023-05-23T05:54:23;10.97;;;8.23;;
19905;SDS011;10115;50.906;4.438;2023-05-23T05:56:49;9.97;;;7.80;;
19905;SDS011;10115;50.906;4.438;2023-05-23T05:59:14;24.37;;;9.73;;
19905;SDS011;10115;50.906;4.438;2023-05-23T06:01:40;16.80;;;9.80;;
19905;SDS011;10115;50.906;4.438;2023-05-23T06:04:06;13.33;;;8.80;;
19905;SDS011;10115;50.906;4.438;2023-05-23T06:06:31;11.67;;;9.03;;
19905;SDS011;10115;50.906;4.438;2023-05-23T06:08:57;21.47;;;8.67;;
19905;SDS011;10115;50.906;4.438;2023-05-23T06:11:23;13.77;;;8.27;;
19905;SDS011;10115;50.906;4.438;2023-05-23T06:13:49;12.70;;;8.07;;
19905;SDS011;10115;50.906;4.438;2023-05-23T06:16:14;18.03;;;10.23;;
19905;SDS011;10115;50.906;4.438;2023-05-23T06:18:40;18.10;;;10.13;;
19905;SDS011;10115;50.906;4.438;2023-05-23T06:21:06;26.97;;;12.80;;
19905;SDS011;10115;50.906;4.438;2023-05-23T06:23:33;20.37;;;9.33;;
19905;SDS011;10115;50.906;4.438;2023-05-23T06:25:58;15.10;;;9.57;;
19905;SDS011;10115;50.906;4.438;2023-05-23T06:28:24;16.77;;;9.50;;
19905;SDS011;10115;50.906;4.438;2023-05-23T06:30:50;17.73;;;10.90;;
19905;SDS011;10115;50.906;4.438;2023-05-23T06:33:15;12.83;;;8.07;;
19905;SDS011;10115;50.906;4.438;2023-05-23T06:35:41;9.77;;;8.40;;
19905;SDS011;10115;50.906;4.438;2023-05-23T06:38:07;15.00;;;8.67;;
19905;SDS011;10115;50.906;4.438;2023-05-23T06:40:33;9.03;;;8.13;;
19905;SDS011;10115;50.906;4.438;2023-05-23T06:42:59;13.87;;;7.20;;
19905;SDS011;10115;50.906;4.438;2023-05-23T06:45:24;6.77;;;6.23;;
19905;SDS011;10115;50.906;4.438;2023-05-23T06:47:50;8.67;;;6.13;;
19905;SDS011;10115;50.906;4.438;2023-05-23T06:50:16;9.10;;;6.77;;
19905;SDS011;10115;50.906;4.438;2023-05-23T06:52:45;5.20;;;4.90;;
19905;SDS011;10115;50.906;4.438;2023-05-23T06:55:11;5.70;;;5.23;;
19905;SDS011;10115;50.906;4.438;2023-05-23T06:57:42;7.37;;;6.73;;
19905;SDS011;10115;50.906;4.438;2023-05-23T07:00:08;5.93;;;5.53;;
19905;SDS011;10115;50.906;4.438;2023-05-23T07:02:34;5.40;;;4.40;;
19905;SDS011;10115;50.906;4.438;2023-05-23T07:05:00;8.80;;;5.73;;
19905;SDS011;10115;50.906;4.438;2023-05-23T07:07:25;10.60;;;5.93;;
19905;SDS011;10115;50.906;4.438;2023-05-23T07:09:51;7.03;;;6.13;;
19905;SDS011;10115;50.906;4.438;2023-05-23T07:12:17;7.53;;;6.83;;
19905;SDS011;10115;50.906;4.438;2023-05-23T07:14:42;8.07;;;6.60;;
19905;SDS011;10115;50.906;4.438;2023-05-23T07:17:08;11.60;;;8.33;;
19905;SDS011;10115;50.906;4.438;2023-05-23T07:19:34;11.47;;;6.87;;
19905;SDS011;10115;50.906;4.438;2023-05-23T07:22:00;12.03;;;6.87;;
19905;SDS011;10115;50.906;4.438;2023-05-23T07:24:25;9.97;;;6.73;;
19905;SDS011;10115;50.906;4.438;2023-05-23T07:26:51;4.87;;;4.47;;
19905;SDS011;10115;50.906;4.438;2023-05-23T07:29:17;7.23;;;6.23;;
19905;SDS011;10115;50.906;4.438;2023-05-23T07:31:42;8.40;;;5.63;;
19905;SDS011;10115;50.906;4.438;2023-05-23T07:34:08;7.17;;;5.90;;
19905;SDS011;10115;50.906;4.438;2023-05-23T07:36:34;5.00;;;4.50;;
19905;SDS011;10115;50.906;4.438;2023-05-23T07:39:01;6.40;;;5.50;;
19905;SDS011;10115;50.906;4.438;2023-05-23T07:41:27;12.23;;;6.03;;
19905;SDS011;10115;50.906;4.438;2023-05-23T07:43:53;15.40;;;5.77;;
19905;SDS011;10115;50.906;4.438;2023-05-23T07:46:19;7.33;;;6.13;;
19905;SDS011;10115;50.906;4.438;2023-05-23T07:48:46;8.07;;;6.37;;
19905;SDS011;10115;50.906;4.438;2023-05-23T07:51:13;7.30;;;5.73;;
19905;SDS011;10115;50.906;4.438;2023-05-23T07:53:39;6.77;;;6.10;;
19905;SDS011;10115;50.906;4.438;2023-05-23T07:56:05;8.13;;;6.10;;
19905;SDS011;10115;50.906;4.438;2023-05-23T07:58:31;11.33;;;7.03;;
19905;SDS011;10115;50.906;4.438;2023-05-23T08:00:57;18.17;;;7.10;;
19905;SDS011;10115;50.906;4.438;2023-05-23T08:03:24;9.50;;;7.47;;
19905;SDS011;10115;50.906;4.438;2023-05-23T08:05:50;13.20;;;7.57;;
19905;SDS011;10115;50.906;4.438;2023-05-23T08:08:15;12.40;;;7.87;;
19905;SDS011;10115;50.906;4.438;2023-05-23T08:10:41;10.17;;;8.03;;
19905;SDS011;10115;50.906;4.438;2023-05-23T08:13:09;13.30;;;7.00;;
19905;SDS011;10115;50.906;4.438;2023-05-23T08:15:35;9.50;;;6.17;;
19905;SDS011;10115;50.906;4.438;2023-05-23T08:18:01;7.53;;;5.57;;
19905;SDS011;10115;50.906;4.438;2023-05-23T08:20:27;8.97;;;7.10;;
19905;SDS011;10115;50.906;4.438;2023-05-23T08:22:59;15.60;;;7.53;;
19905;SDS011;10115;50.906;4.438;2023-05-23T08:25:26;17.27;;;7.47;;
19905;SDS011;10115;50.906;4.438;2023-05-23T08:27:57;14.67;;;6.77;;
19905;SDS011;10115;50.906;4.438;2023-05-23T08:30:24;10.07;;;6.50;;
19905;SDS011;10115;50.906;4.438;2023-05-23T08:32:51;12.43;;;7.23;;
19905;SDS011;10115;50.906;4.438;2023-05-23T08:35:18;11.30;;;6.37;;
19905;SDS011;10115;50.906;4.438;2023-05-23T08:37:43;7.67;;;6.43;;
19905;SDS011;10115;50.906;4.438;2023-05-23T08:40:12;9.73;;;5.87;;
19905;SDS011;10115;50.906;4.438;2023-05-23T08:42:44;7.67;;;6.17;;
19905;SDS011;10115;50.906;4.438;2023-05-23T08:45:11;9.07;;;5.73;;
19905;SDS011;10115;50.906;4.438;2023-05-23T08:47:37;10.70;;;6.57;;
19905;SDS011;10115;50.906;4.438;2023-05-23T08:50:06;11.43;;;5.03;;
19905;SDS011;10115;50.906;4.438;2023-05-23T08:52:34;12.53;;;6.23;;
19905;SDS011;10115;50.906;4.438;2023-05-23T08:55:07;11.67;;;6.87;;
19905;SDS011;10115;50.906;4.438;2023-05-23T08:57:36;7.63;;;5.57;;
19905;SDS011;10115;50.906;4.438;2023-05-23T09:00:03;7.17;;;4.70;;
19905;SDS011;10115;50.906;4.438;2023-05-23T09:02:35;5.93;;;5.33;;
19905;SDS011;10115;50.906;4.438;2023-05-23T09:05:01;8.13;;;6.60;;
19905;SDS011;10115;50.906;4.438;2023-05-23T09:07:27;11.63;;;5.93;;
19905;SDS011;10115;50.906;4.438;2023-05-23T09:09:54;8.00;;;6.00;;
19905;SDS011;10115;50.906;4.438;2023-05-23T09:12:20;6.80;;;5.67;;
19905;SDS011;10115;50.906;4.438;2023-05-23T09:14:46;9.03;;;5.83;;
19905;SDS011;10115;50.906;4.438;2023-05-23T09:17:18;10.57;;;5.43;;
19905;SDS011;10115;50.906;4.438;2023-05-23T09:19:44;9.10;;;5.87;;
19905;SDS011;10115;50.906;4.438;2023-05-23T09:22:13;6.50;;;5.20;;
19905;SDS011;10115;50.906;4.438;2023-05-23T09:24:39;9.93;;;5.90;;
19905;SDS011;10115;50.906;4.438;2023-05-23T09:27:05;7.83;;;5.40;;
19905;SDS011;10115;50.906;4.438;2023-05-23T09:29:35;6.73;;;4.80;;
19905;SDS011;10115;50.906;4.438;2023-05-23T09:32:12;5.13;;;4.63;;
19905;SDS011;10115;50.906;4.438;2023-05-23T09:34:40;4.77;;;4.20;;
19905;SDS011;10115;50.906;4.438;2023-05-23T09:37:12;7.53;;;5.00;;
19905;SDS011;10115;50.906;4.438;2023-05-23T09:39:46;7.40;;;5.37;;
19905;SDS011;10115;50.906;4.438;2023-05-23T09:42:17;5.57;;;5.03;;
19905;SDS011;10115;50.906;4.438;2023-05-23T09:44:49;5.87;;;5.23;;
19905;SDS011;10115;50.906;4.438;2023-05-23T09:47:15;6.77;;;4.70;;
19905;SDS011;10115;50.906;4.438;2023-05-23T09:49:44;14.17;;;5.37;;
19905;SDS011;10115;50.906;4.438;2023-05-23T09:52:11;12.97;;;5.83;;
19905;SDS011;10115;50.906;4.438;2023-05-23T09:54:37;14.87;;;5.63;;
19905;SDS011;10115;50.906;4.438;2023-05-23T09:57:10;5.57;;;4.67;;
19905;SDS011;10115;50.906;4.438;2023-05-23T09:59:37;5.30;;;4.80;;
19905;SDS011;10115;50.906;4.438;2023-05-23T10:02:07;7.17;;;4.83;;
19905;SDS011;10115;50.906;4.438;2023-05-23T10:04:40;5.37;;;4.53;;
19905;SDS011;10115;50.906;4.438;2023-05-23T10:07:13;5.13;;;4.83;;
19905;SDS011;10115;50.906;4.438;2023-05-23T10:09:47;18.80;;;5.87;;
19905;SDS011;10115;50.906;4.438;2023-05-23T10:15:06;7.87;;;4.80;;
19905;SDS011;10115;50.906;4.438;2023-05-23T10:20:13;7.27;;;4.93;;
19905;SDS011;10115;50.906;4.438;2023-05-23T10:22:40;7.37;;;4.50;;
19905;SDS011;10115;50.906;4.438;2023-05-23T10:25:07;4.60;;;4.30;;
19905;SDS011;10115;50.906;4.438;2023-05-23T10:27:37;5.87;;;4.10;;
19905;SDS011;10115;50.906;4.438;2023-05-23T10:30:05;5.33;;;4.63;;
19905;SDS011;10115;50.906;4.438;2023-05-23T10:32:32;8.13;;;4.70;;
19905;SDS011;10115;50.906;4.438;2023-05-23T10:45:56;11.20;;;4.63;;
19905;SDS011;10115;50.906;4.438;2023-05-23T10:48:30;3.67;;;3.43;;
19905;SDS011;10115;50.906;4.438;2023-05-23T10:53:45;3.80;;;3.60;;
19905;SDS011;10115;50.906;4.438;2023-05-23T10:56:18;4.77;;;3.43;;
19905;SDS011;10115;50.906;4.438;2023-05-23T10:58:51;5.53;;;4.10;;
19905;SDS011;10115;50.906;4.438;2023-05-23T11:01:20;3.80;;;3.60;;
19905;SDS011;10115;50.906;4.438;2023-05-23T11:09:14;9.40;;;4.43;;
19905;SDS011;10115;50.906;4.438;2023-05-23T11:14:18;5.17;;;4.77;;
19905;SDS011;10115;50.906;4.438;2023-05-23T11:16:44;13.10;;;4.70;;
19905;SDS011;10115;50.906;4.438;2023-05-23T11:27:10;10.97;;;4.20;;
19905;SDS011;10115;50.906;4.438;2023-05-23T11:29:36;11.03;;;4.60;;
19905;SDS011;10115;50.906;4.438;2023-05-23T11:32:11;4.83;;;4.47;;
19905;SDS011;10115;50.906;4.438;2023-05-23T11:34:37;7.87;;;4.77;;
19905;SDS011;10115;50.906;4.438;2023-05-23T11:37:04;9.23;;;4.33;;
19905;SDS011;10115;50.906;4.438;2023-05-23T11:39:30;7.10;;;5.13;;
19905;SDS011;10115;50.906;4.438;2023-05-23T11:41:59;5.10;;;4.17;;
19905;SDS011;10115;50.906;4.438;2023-05-23T11:44:26;5.00;;;4.50;;
19905;SDS011;10115;50.906;4.438;2023-05-23T11:47:01;7.23;;;4.50;;
19905;SDS011;10115;50.906;4.438;2023-05-23T11:49:34;7.13;;;5.23;;
19905;SDS011;10115;50.906;4.438;2023-05-23T11:52:04;6.53;;;4.23;;
19905;SDS011;10115;50.906;4.438;2023-05-23T11:54:31;6.03;;;5.13;;
19905;SDS011;10115;50.906;4.438;2023-05-23T11:56:57;6.70;;;3.93;;
19905;SDS011;10115;50.906;4.438;2023-05-23T11:59:24;6.00;;;4.40;;
19905;SDS011;10115;50.906;4.438;2023-05-23T12:01:53;6.37;;;3.80;;
19905;SDS011;10115;50.906;4.438;2023-05-23T12:04:20;8.33;;;4.23;;
19905;SDS011;10115;50.906;4.438;2023-05-23T12:06:46;10.43;;;3.70;;
19905;SDS011;10115;50.906;4.438;2023-05-23T12:09:14;7.20;;;4.33;;
19905;SDS011;10115;50.906;4.438;2023-05-23T12:11:41;5.47;;;3.97;;
19905;SDS011;10115;50.906;4.438;2023-05-23T12:14:13;5.23;;;4.23;;
19905;SDS011;10115;50.906;4.438;2023-05-23T12:16:41;9.00;;;4.20;;
19905;SDS011;10115;50.906;4.438;2023-05-23T12:19:13;8.00;;;3.97;;
19905;SDS011;10115;50.906;4.438;2023-05-23T12:21:45;6.63;;;4.23;;
19905;SDS011;10115;50.906;4.438;2023-05-23T12:26:54;6.53;;;4.10;;
19905;SDS011;10115;50.906;4.438;2023-05-23T12:29:29;3.93;;;3.57;;
19905;SDS011;10115;50.906;4.438;2023-05-23T12:32:00;4.23;;;3.97;;
19905;SDS011;10115;50.906;4.438;2023-05-23T12:34:27;4.80;;;4.27;;
19905;SDS011;10115;50.906;4.438;2023-05-23T12:36:53;6.37;;;4.50;;
19905;SDS011;10115;50.906;4.438;2023-05-23T12:39:23;8.30;;;4.60;;
19905;SDS011;10115;50.906;4.438;2023-05-23T12:41:53;6.73;;;4.20;;
19905;SDS011;10115;50.906;4.438;2023-05-23T12:44:22;5.10;;;4.30;;
19905;SDS011;10115;50.906;4.438;2023-05-23T12:46:54;7.77;;;5.10;;
19905;SDS011;10115;50.906;4.438;2023-05-23T12:49:20;7.50;;;3.70;;
19905;SDS011;10115;50.906;4.438;2023-05-23T12:51:46;7.53;;;4.47;;
19905;SDS011;10115;50.906;4.438;2023-05-23T12:54:11;6.70;;;4.57;;
19905;SDS011;10115;50.906;4.438;2023-05-23T12:56:37;10.17;;;5.03;;
19905;SDS011;10115;50.906;4.438;2023-05-23T12:59:03;7.63;;;3.73;;
19905;SDS011;10115;50.906;4.438;2023-05-23T13:01:29;12.77;;;5.13;;
19905;SDS011;10115;50.906;4.438;2023-05-23T13:03:55;8.27;;;3.93;;
19905;SDS011;10115;50.906;4.438;2023-05-23T13:06:20;7.07;;;4.90;;
19905;SDS011;10115;50.906;4.438;2023-05-23T13:08:46;5.10;;;4.03;;
19905;SDS011;10115;50.906;4.438;2023-05-23T13:11:14;7.07;;;4.57;;
19905;SDS011;10115;50.906;4.438;2023-05-23T13:13:40;5.23;;;4.20;;
19905;SDS011;10115;50.906;4.438;2023-05-23T13:16:06;6.20;;;4.90;;
19905;SDS011;10115;50.906;4.438;2023-05-23T13:18:33;11.27;;;4.57;;
19905;SDS011;10115;50.906;4.438;2023-05-23T13:20:59;4.70;;;4.23;;
19905;SDS011;10115;50.906;4.438;2023-05-23T13:23:25;6.60;;;3.77;;
19905;SDS011;10115;50.906;4.438;2023-05-23T13:25:51;6.23;;;5.07;;
19905;SDS011;10115;50.906;4.438;2023-05-23T13:28:17;6.27;;;4.13;;
19905;SDS011;10115;50.906;4.438;2023-05-23T13:30:43;8.93;;;4.23;;
19905;SDS011;10115;50.906;4.438;2023-05-23T13:33:08;7.67;;;4.27;;
19905;SDS011;10115;50.906;4.438;2023-05-23T13:35:34;5.20;;;3.90;;
19905;SDS011;10115;50.906;4.438;2023-05-23T13:38:01;7.33;;;3.57;;
19905;SDS011;10115;50.906;4.438;2023-05-23T13:40:26;7.03;;;3.70;;
19905;SDS011;10115;50.906;4.438;2023-05-23T13:42:52;10.73;;;4.13;;
19905;SDS011;10115;50.906;4.438;2023-05-23T13:45:18;8.23;;;4.37;;
19905;SDS011;10115;50.906;4.438;2023-05-23T13:47:44;6.23;;;3.90;;
19905;SDS011;10115;50.906;4.438;2023-05-23T13:50:10;5.10;;;4.20;;
19905;SDS011;10115;50.906;4.438;2023-05-23T13:52:36;5.43;;;4.20;;
19905;SDS011;10115;50.906;4.438;2023-05-23T13:55:02;9.67;;;4.90;;
19905;SDS011;10115;50.906;4.438;2023-05-23T13:57:29;9.77;;;4.50;;
19905;SDS011;10115;50.906;4.438;2023-05-23T13:59:55;11.53;;;4.03;;
19905;SDS011;10115;50.906;4.438;2023-05-23T14:02:21;5.17;;;4.70;;
19905;SDS011;10115;50.906;4.438;2023-05-23T14:04:49;8.07;;;3.97;;
19905;SDS011;10115;50.906;4.438;2023-05-23T14:07:18;6.43;;;3.40;;
19905;SDS011;10115;50.906;4.438;2023-05-23T14:09:44;4.07;;;3.77;;
19905;SDS011;10115;50.906;4.438;2023-05-23T14:12:09;4.13;;;3.80;;
19905;SDS011;10115;50.906;4.438;2023-05-23T14:14:35;13.73;;;3.40;;
19905;SDS011;10115;50.906;4.438;2023-05-23T14:17:01;4.30;;;3.93;;
19905;SDS011;10115;50.906;4.438;2023-05-23T14:19:27;7.93;;;3.30;;
19905;SDS011;10115;50.906;4.438;2023-05-23T14:21:52;6.00;;;3.60;;
19905;SDS011;10115;50.906;4.438;2023-05-23T14:24:18;4.40;;;2.90;;
19905;SDS011;10115;50.906;4.438;2023-05-23T14:26:45;4.67;;;4.20;;
19905;SDS011;10115;50.906;4.438;2023-05-23T14:29:11;8.43;;;3.70;;
19905;SDS011;10115;50.906;4.438;2023-05-23T14:31:38;5.97;;;3.80;;
19905;SDS011;10115;50.906;4.438;2023-05-23T14:34:04;6.33;;;4.13;;
19905;SDS011;10115;50.906;4.438;2023-05-23T14:36:30;5.63;;;3.67;;
19905;SDS011;10115;50.906;4.438;2023-05-23T14:38:57;6.23;;;3.47;;
19905;SDS011;10115;50.906;4.438;2023-05-23T14:41:22;8.27;;;4.83;;
19905;SDS011;10115;50.906;4.438;2023-05-23T14:43:48;7.20;;;3.53;;
19905;SDS011;10115;50.906;4.438;2023-05-23T14:46:15;5.37;;;3.27;;
19905;SDS011;10115;50.906;4.438;2023-05-23T14:48:41;10.63;;;4.33;;
19905;SDS011;10115;50.906;4.438;2023-05-23T14:51:07;7.13;;;3.70;;
19905;SDS011;10115;50.906;4.438;2023-05-23T14:53:34;4.77;;;3.30;;
19905;SDS011;10115;50.906;4.438;2023-05-23T14:56:00;15.73;;;3.53;;
19905;SDS011;10115;50.906;4.438;2023-05-23T14:58:25;4.73;;;3.50;;
19905;SDS011;10115;50.906;4.438;2023-05-23T15:00:51;8.00;;;3.30;;
19905;SDS011;10115;50.906;4.438;2023-05-23T15:03:17;8.07;;;3.57;;
19905;SDS011;10115;50.906;4.438;2023-05-23T15:05:44;9.37;;;4.07;;
19905;SDS011;10115;50.906;4.438;2023-05-23T15:08:10;9.50;;;3.20;;
19905;SDS011;10115;50.906;4.438;2023-05-23T15:10:36;13.07;;;4.17;;
19905;SDS011;10115;50.906;4.438;2023-05-23T15:13:01;6.63;;;3.30;;
19905;SDS011;10115;50.906;4.438;2023-05-23T15:15:27;6.30;;;3.83;;
19905;SDS011;10115;50.906;4.438;2023-05-23T15:18:01;7.73;;;3.73;;